Terminal Aerodrome Forecast
Issued by NWS Detroit/Pontiac, MI

Home | Current Version | Previous Version | Text Only | Print | Product List | Glossary On
Versions: 1 2 3 4 5 6 7 8 9 10 11 12 13 14 15 16 17 18 19 20 21 22 23 24 25 26 27
780
FTUS43 KDTX 100909 AAA
TAFDTW
TAF AMD
KDTW 100909Z 1009/1112 28013KT P6SM -SHSN OVC025
     FM101400 30013G18KT P6SM -SHSN SCT025 BKN035
     FM102200 28013KT P6SM SCT035 BKN045
     FM110400 28010KT P6SM SCT045=

USA.gov is the U.S. government's official web portal to all federal, state and local government web resources and services.